Time;durP1;ratioP1;P1;durP2;ratioP2;P2;SDS_P1;SDS_P2;PMS_P1;PMS_P2;Temp;Humidity;BMP_temperature;BMP_pressure;BME280_temperature;BME280_humidity;BME280_pressure;Samples;Min_cycle;Max_cycle;Signal;HPM_P1;HPM_P2
2022/09/11 00:00:05;;;;;;;;;;;;;;;;;;1908976;28;7096;-67
2022/09/11 00:01:02;;;;;;;;;;;;;;;;;;1910649;28;7014;-67
2022/09/11 00:02:00;;;;;;;;;;;;;;;;;;1905709;28;7050;-67
2022/09/11 00:02:57;;;;;;;;;;;;;;;;;;1904863;28;7009;-67
2022/09/11 00:03:55;;;;;;;;;;;;;;;;;;1904980;28;7054;-67
2022/09/11 00:04:54;;;;;;;;;;;;;;;;;;1904835;28;7009;-67
2022/09/11 00:05:51;;;;;;;;;;;;;;;;;;1904938;28;7113;-67
2022/09/11 00:06:49;;;;;;;;;;;;;;;;;;1903970;28;7089;-67
2022/09/11 00:07:46;;;;;;;;;;;;;;;;;;1904950;28;7005;-67
2022/09/11 00:08:44;;;;;;;;;;;;;;;;;;1905123;28;7005;-67
2022/09/11 00:09:41;;;;;;;;;;;;;;;;;;1904204;28;7041;-67
2022/09/11 00:10:40;;;;;;;;;;;;;;;;;;1905126;28;7170;-67
2022/09/11 00:11:42;;;;;;;;;;;;;;;;;;1904851;28;7017;-67
2022/09/11 00:12:39;;;;;;;;;;;;;;;;;;1904085;28;7379;-67
2022/09/11 00:13:38;;;;;;;;;;;;;;;;;;1903882;28;7009;-67
2022/09/11 00:14:35;;;;;;;;;;;;;;;;;;1897102;28;7013;-66
2022/09/11 00:15:36;;;;;;;;;;;;;;;;;;1896794;28;8246;-67
2022/09/11 00:16:36;;;;;;;;;;;;;;;;;;1896208;28;7353;-67
2022/09/11 00:17:33;;;;;;;;;;;;;;;;;;1904522;28;7117;-67
2022/09/11 00:18:34;;;;;;;;;;;;;;;;;;1895674;28;7100;-67
2022/09/11 00:19:34;;;;;;;;;;;;;;;;;;1899603;28;7096;-67
2022/09/11 00:20:32;;;;;;;;;;;;;;;;;;1896997;28;7089;-67
2022/09/11 00:21:30;;;;;;;;;;;;;;;;;;1897227;28;7010;-67
2022/09/11 00:22:27;;;;;;;;;;;;;;;;;;1902756;28;7033;-67
2022/09/11 00:23:26;;;;;;;;;;;;;;;;;;1901145;28;8027;-67
2022/09/11 00:24:23;;;;;;;;;;;;;;;;;;1904714;28;7005;-66
2022/09/11 00:25:21;;;;;;;;;;;;;;;;;;1898582;28;7018;-67
2022/09/11 00:26:19;;;;;;;;;;;;;;;;;;1901657;28;8126;-67
2022/09/11 00:27:16;;;;;;;;;;;;;;;;;;1893537;28;7092;-67
2022/09/11 00:28:16;;;;;;;;;;;;;;;;;;1888660;28;7006;-67
2022/09/11 00:29:13;;;;;;;;;;;;;;;;;;1895725;28;7010;-68
2022/09/11 00:30:13;;;;;;;;;;;;;;;;;;1900449;28;7093;-67
2022/09/11 00:31:15;;;;;;;;;;;;;;;;;;1904945;28;7013;-67
2022/09/11 00:32:14;;;;;;;;;;;;;;;;;;1897909;28;7050;-67
2022/09/11 00:33:13;;;;;;;;;;;;;;;;;;1896042;28;7010;-67
2022/09/11 00:34:10;;;;;;;;;;;;;;;;;;1894555;28;8043;-67
2022/09/11 00:35:08;;;;;;;;;;;;;;;;;;1895523;28;8051;-67
2022/09/11 00:36:07;;;;;;;;;;;;;;;;;;1897477;28;7117;-67
2022/09/11 00:37:05;;;;;;;;;;;;;;;;;;1896917;28;8016;-67
2022/09/11 00:38:02;;;;;;;;;;;;;;;;;;1901599;28;7014;-67
2022/09/11 00:39:00;;;;;;;;;;;;;;;;;;1897284;28;7108;-68
2022/09/11 00:39:57;;;;;;;;;;;;;;;;;;1897432;28;7078;-67
2022/09/11 00:40:57;;;;;;;;;;;;;;;;;;1900850;28;7009;-67
2022/09/11 00:41:54;;;;;;;;;;;;;;;;;;1896248;28;7360;-67
2022/09/11 00:42:52;;;;;;;;;;;;;;;;;;1896246;28;7290;-67
2022/09/11 00:43:55;;;;;;;;;;;;;;;;;;1897137;28;7089;-67
2022/09/11 00:44:59;;;;;;;;;;;;;;;;;;1896979;28;7144;-67
2022/09/11 00:45:58;;;;;;;;;;;;;;;;;;1897002;28;7109;-67
2022/09/11 00:46:59;;;;;;;;;;;;;;;;;;1896759;28;7249;-67
2022/09/11 00:47:58;;;;;;;;;;;;;;;;;;1897484;28;7038;-67
2022/09/11 00:48:58;;;;;;;;;;;;;;;;;;1903388;28;7021;-67
2022/09/11 00:50:02;;;;;;;;;;;;;;;;;;1904074;28;7038;-67
2022/09/11 00:51:02;;;;;;;;;;;;;;;;;;1903120;28;7054;-67
2022/09/11 00:52:06;;;;;;;;;;;;;;;;;;1895782;28;7165;-67
2022/09/11 00:53:08;;;;;;;;;;;;;;;;;;1896591;28;7013;-68
2022/09/11 00:54:08;;;;;;;;;;;;;;;;;;1897152;28;8103;-67
2022/09/11 00:55:08;;;;;;;;;;;;;;;;;;1896883;28;7033;-67
2022/09/11 00:56:08;;;;;;;;;;;;;;;;;;1895632;28;7005;-67
2022/09/11 00:57:07;;;;;;;;;;;;;;;;;;1896465;28;7089;-67
2022/09/11 00:58:08;;;;;;;;;;;;;;;;;;1901103;28;8091;-66
2022/09/11 00:59:07;;;;;;;;;;;;;;;;;;1897967;28;7092;-67
2022/09/11 01:00:06;;;;;;;;;;;;;;;;;;1900751;28;7029;-67
2022/09/11 01:01:05;;;;;;;;;;;;;;;;;;1897599;28;7046;-67
2022/09/11 01:02:04;;;;;;;;;;;;;;;;;;1900365;28;7096;-67
2022/09/11 01:03:02;;;;;;;;;;;;;;;;;;1896474;28;7010;-67
2022/09/11 01:04:02;;;;;;;;;;;;;;;;;;1899932;28;7041;-67
2022/09/11 01:04:59;;;;;;;;;;;;;;;;;;1896852;28;7005;-67
2022/09/11 01:05:58;;;;;;;;;;;;;;;;;;1895357;28;7112;-67
2022/09/11 01:06:58;;;;;;;;;;;;;;;;;;1900886;28;8023;-66
2022/09/11 01:07:55;;;;;;;;;;;;;;;;;;1901805;28;7093;-67
2022/09/11 01:08:53;;;;;;;;;;;;;;;;;;1896847;28;7128;-67
2022/09/11 01:09:51;;;;;;;;;;;;;;;;;;1895580;28;7304;-67
2022/09/11 01:11:13;;;;;;;;;;;;;;;;;;1900794;28;7092;-67
2022/09/11 01:12:22;;;;;;;;;;;;;;;;;;1899026;28;7013;-67
2022/09/11 01:13:36;;;;;;;;;;;;;;;;;;1898459;28;7009;-67
2022/09/11 01:14:53;;;;;;;;;;;;;;;;;;1903126;28;7148;-67
2022/09/11 01:16:02;;;;;;;;;;;;;;;;;;1904587;28;7102;-67
2022/09/11 01:17:18;;;;;;;;;;;;;;;;;;1904400;28;7053;-67
2022/09/11 01:18:15;;;;;;;;;;;;;;;;;;1903068;28;7120;-67
2022/09/11 01:19:31;;;;;;;;;;;;;;;;;;1904621;28;8055;-67
2022/09/11 01:20:43;;;;;;;;;;;;;;;;;;1902044;28;7006;-67
2022/09/11 01:21:43;;;;;;;;;;;;;;;;;;1904057;28;7092;-67
2022/09/11 01:22:41;;;;;;;;;;;;;;;;;;1903695;28;7093;-67
2022/09/11 01:23:48;;;;;;;;;;;;;;;;;;1904146;28;7107;-67
2022/09/11 01:24:48;;;;;;;;;;;;;;;;;;1904425;28;7006;-67
2022/09/11 01:25:58;;;;;;;;;;;;;;;;;;1904004;28;7001;-68
2022/09/11 01:27:14;;;;;;;;;;;;;;;;;;1904018;28;7092;-67
2022/09/11 01:28:14;;;;;;;;;;;;;;;;;;1903818;28;7005;-67
2022/09/11 01:29:24;;;;;;;;;;;;;;;;;;1904672;28;7103;-67
2022/09/11 01:30:25;;;;;;;;;;;;;;;;;;1903764;28;7013;-67
2022/09/11 01:31:26;;;;;;;;;;;;;;;;;;1903463;28;7042;-67
2022/09/11 01:32:42;;;;;;;;;;;;;;;;;;1903862;28;7046;-67
2022/09/11 01:33:40;;;;;;;;;;;;;;;;;;1905195;28;7013;-67
2022/09/11 01:34:56;;;;;;;;;;;;;;;;;;1903283;28;7046;-67
2022/09/11 01:36:17;;;;;;;;;;;;;;;;;;1903230;28;7010;-67
2022/09/11 01:37:22;;;;;;;;;;;;;;;;;;1903867;28;7042;-67
2022/09/11 01:38:47;;;;;;;;;;;;;;;;;;1904466;28;7216;-67
2022/09/11 01:39:52;;;;;;;;;;;;;;;;;;1903147;28;7021;-67
2022/09/11 01:40:50;;;;;;;;;;;;;;;;;;1902712;28;7092;-67
2022/09/11 01:41:56;;;;;;;;;;;;;;;;;;1903457;28;7046;-67
2022/09/11 01:42:59;;;;;;;;;;;;;;;;;;1904241;28;7104;-66
2022/09/11 01:43:56;;;;;;;;;;;;;;;;;;1903092;28;7201;-67
2022/09/11 01:44:56;;;;;;;;;;;;;;;;;;1904568;28;8098;-67
2022/09/11 01:45:56;;;;;;;;;;;;;;;;;;1904384;28;7105;-67
2022/09/11 01:46:54;;;;;;;;;;;;;;;;;;1903790;28;7046;-67
2022/09/11 01:47:54;;;;;;;;;;;;;;;;;;1904000;28;8066;-67
2022/09/11 01:48:59;;;;;;;;;;;;;;;;;;1904022;28;7092;-67
2022/09/11 01:50:02;;;;;;;;;;;;;;;;;;1903656;28;8047;-67
2022/09/11 01:51:02;;;;;;;;;;;;;;;;;;1902847;28;7100;-67
2022/09/11 01:52:03;;;;;;;;;;;;;;;;;;1903631;28;7092;-67
2022/09/11 01:53:02;;;;;;;;;;;;;;;;;;1904017;28;7088;-67
2022/09/11 01:54:03;;;;;;;;;;;;;;;;;;1903848;28;7092;-67
2022/09/11 01:55:07;;;;;;;;;;;;;;;;;;1904064;28;8026;-67
2022/09/11 01:56:14;;;;;;;;;;;;;;;;;;1904155;28;7318;-67
2022/09/11 01:57:24;;;;;;;;;;;;;;;;;;1904233;28;7092;-67
2022/09/11 01:58:26;;;;;;;;;;;;;;;;;;1904062;28;7113;-66
2022/09/11 01:59:29;;;;;;;;;;;;;;;;;;1904562;28;7204;-67
2022/09/11 02:00:28;;;;;;;;;;;;;;;;;;1904328;28;8103;-67
2022/09/11 02:01:32;;;;;;;;;;;;;;;;;;1903673;28;8395;-67
2022/09/11 02:02:36;;;;;;;;;;;;;;;;;;1903456;28;8590;-67
2022/09/11 02:03:37;;;;;;;;;;;;;;;;;;1904121;28;7086;-67
2022/09/11 02:04:40;;;;;;;;;;;;;;;;;;1904003;28;7006;-67
2022/09/11 02:05:44;;;;;;;;;;;;;;;;;;1903845;28;7117;-67
2022/09/11 02:06:47;;;;;;;;;;;;;;;;;;1903596;28;7407;-67
2022/09/11 02:07:54;;;;;;;;;;;;;;;;;;1903146;28;7013;-67
2022/09/11 02:09:02;;;;;;;;;;;;;;;;;;1902617;28;7116;-67
2022/09/11 02:10:04;;;;;;;;;;;;;;;;;;1903150;28;7081;-67
2022/09/11 02:11:05;;;;;;;;;;;;;;;;;;1903610;28;7002;-67
2022/09/11 02:12:07;;;;;;;;;;;;;;;;;;1902915;28;7089;-67
2022/09/11 02:13:16;;;;;;;;;;;;;;;;;;1904231;28;7009;-67
2022/09/11 02:14:20;;;;;;;;;;;;;;;;;;1909674;28;7240;-67
2022/09/11 02:15:18;;;;;;;;;;;;;;;;;;1910928;28;7084;-67
2022/09/11 02:16:15;;;;;;;;;;;;;;;;;;1902953;28;7092;-67
2022/09/11 02:17:23;;;;;;;;;;;;;;;;;;1904389;28;7356;-67
2022/09/11 02:18:20;;;;;;;;;;;;;;;;;;1904070;28;7006;-67
2022/09/11 02:19:19;;;;;;;;;;;;;;;;;;1903983;28;7253;-67
2022/09/11 02:20:19;;;;;;;;;;;;;;;;;;1904119;28;7013;-67
2022/09/11 02:21:17;;;;;;;;;;;;;;;;;;1903577;28;7005;-67
2022/09/11 02:22:14;;;;;;;;;;;;;;;;;;1904027;28;7093;-67
2022/09/11 02:23:12;;;;;;;;;;;;;;;;;;1903920;28;8066;-67
2022/09/11 02:24:10;;;;;;;;;;;;;;;;;;1903953;28;7049;-67
2022/09/11 02:25:07;;;;;;;;;;;;;;;;;;1903461;28;7100;-68
2022/09/11 02:26:08;;;;;;;;;;;;;;;;;;1896110;28;8007;-67
2022/09/11 02:27:18;;;;;;;;;;;;;;;;;;1902762;28;7029;-67
2022/09/11 02:28:16;;;;;;;;;;;;;;;;;;1904149;28;7132;-67
2022/09/11 02:29:14;;;;;;;;;;;;;;;;;;1903233;28;7017;-67
2022/09/11 02:30:13;;;;;;;;;;;;;;;;;;1904310;28;7017;-67
2022/09/11 02:31:10;;;;;;;;;;;;;;;;;;1904070;28;7092;-67
2022/09/11 02:32:10;;;;;;;;;;;;;;;;;;1904137;28;8079;-67
2022/09/11 02:33:46;;;;;;;;;;;;;;;;;;1903769;28;7399;-67
2022/09/11 02:34:45;;;;;;;;;;;;;;;;;;1875725;28;7006;-67
2022/09/11 02:35:51;;;;;;;;;;;;;;;;;;1880287;28;7005;-67
2022/09/11 02:37:10;;;;;;;;;;;;;;;;;;1879078;28;8033;-67
2022/09/11 02:38:20;;;;;;;;;;;;;;;;;;1879101;28;7093;-66
2022/09/11 02:39:29;;;;;;;;;;;;;;;;;;1878760;28;7088;-67
2022/09/11 02:40:32;;;;;;;;;;;;;;;;;;1884982;28;7038;-67
2022/09/11 02:41:40;;;;;;;;;;;;;;;;;;1901577;28;7493;-67
2022/09/11 02:42:38;;;;;;;;;;;;;;;;;;1903034;28;7117;-67
2022/09/11 02:43:44;;;;;;;;;;;;;;;;;;1903566;28;7049;-68
2022/09/11 02:44:44;;;;;;;;;;;;;;;;;;1903962;28;7097;-67
2022/09/11 02:45:47;;;;;;;;;;;;;;;;;;1903556;28;7006;-67
2022/09/11 02:46:54;;;;;;;;;;;;;;;;;;1903090;28;7100;-66
2022/09/11 02:47:55;;;;;;;;;;;;;;;;;;1902001;28;7014;-67
2022/09/11 02:48:59;;;;;;;;;;;;;;;;;;1903907;28;7009;-67
2022/09/11 02:50:02;;;;;;;;;;;;;;;;;;1903709;28;7054;-67
2022/09/11 02:51:02;;;;;;;;;;;;;;;;;;1903723;28;7006;-67
2022/09/11 02:52:02;;;;;;;;;;;;;;;;;;1903767;28;7100;-66
2022/09/11 02:53:11;;;;;;;;;;;;;;;;;;1905199;28;7009;-66
2022/09/11 02:54:09;;;;;;;;;;;;;;;;;;1905527;28;7033;-66
2022/09/11 02:55:18;;;;;;;;;;;;;;;;;;1905634;28;7205;-67
2022/09/11 02:56:23;;;;;;;;;;;;;;;;;;1905506;28;7009;-67
2022/09/11 02:57:23;;;;;;;;;;;;;;;;;;1905330;28;7120;-66
2022/09/11 02:58:31;;;;;;;;;;;;;;;;;;1903835;28;7314;-66
2022/09/11 02:59:33;;;;;;;;;;;;;;;;;;1905135;28;7089;-67
2022/09/11 03:00:30;;;;;;;;;;;;;;;;;;1904369;28;7054;-66
2022/09/11 03:01:28;;;;;;;;;;;;;;;;;;1905524;28;7045;-66
2022/09/11 03:02:27;;;;;;;;;;;;;;;;;;1903682;28;7010;-67
2022/09/11 03:03:25;;;;;;;;;;;;;;;;;;1905301;28;7009;-66
2022/09/11 03:04:23;;;;;;;;;;;;;;;;;;1904415;28;7009;-66
2022/09/11 03:05:22;;;;;;;;;;;;;;;;;;1904419;28;7006;-66
2022/09/11 03:06:24;;;;;;;;;;;;;;;;;;1904818;28;8051;-66
2022/09/11 03:07:24;;;;;;;;;;;;;;;;;;1904868;28;7217;-65
2022/09/11 03:08:21;;;;;;;;;;;;;;;;;;1905051;28;7006;-66
2022/09/11 03:09:19;;;;;;;;;;;;;;;;;;1905141;28;7028;-67
2022/09/11 03:10:17;;;;;;;;;;;;;;;;;;1905160;28;7096;-66
2022/09/11 03:11:16;;;;;;;;;;;;;;;;;;1903543;28;7017;-67
2022/09/11 03:12:13;;;;;;;;;;;;;;;;;;1904284;28;7413;-67
2022/09/11 03:13:13;;;;;;;;;;;;;;;;;;1904963;28;7013;-67
2022/09/11 03:14:11;;;;;;;;;;;;;;;;;;1904616;28;7006;-66
2022/09/11 03:15:09;;;;;;;;;;;;;;;;;;1904935;28;7347;-66
2022/09/11 03:16:06;;;;;;;;;;;;;;;;;;1905078;28;7120;-67
2022/09/11 03:17:04;;;;;;;;;;;;;;;;;;1905117;28;7084;-66
2022/09/11 03:18:03;;;;;;;;;;;;;;;;;;1905086;28;7040;-67
2022/09/11 03:19:00;;;;;;;;;;;;;;;;;;1905678;28;8041;-66
2022/09/11 03:19:57;;;;;;;;;;;;;;;;;;1904267;28;7005;-66
2022/09/11 03:20:55;;;;;;;;;;;;;;;;;;1896930;28;7093;-66
2022/09/11 03:21:53;;;;;;;;;;;;;;;;;;1903936;28;7104;-66
2022/09/11 03:22:50;;;;;;;;;;;;;;;;;;1902051;28;7234;-66
2022/09/11 03:23:47;;;;;;;;;;;;;;;;;;1904110;28;7156;-66
2022/09/11 03:24:45;;;;;;;;;;;;;;;;;;1904992;28;7010;-66
2022/09/11 03:25:42;;;;;;;;;;;;;;;;;;1903639;28;7013;-67
2022/09/11 03:26:39;;;;;;;;;;;;;;;;;;1905349;28;7005;-66
2022/09/11 03:27:38;;;;;;;;;;;;;;;;;;1905408;28;7328;-66
2022/09/11 03:28:35;;;;;;;;;;;;;;;;;;1902101;28;7013;-66
2022/09/11 03:29:33;;;;;;;;;;;;;;;;;;1903137;28;7710;-66
2022/09/11 03:30:31;;;;;;;;;;;;;;;;;;1904889;28;7013;-66
2022/09/11 03:31:29;;;;;;;;;;;;;;;;;;1905071;28;7046;-66
2022/09/11 03:32:26;;;;;;;;;;;;;;;;;;1905002;28;7017;-66
2022/09/11 03:33:24;;;;;;;;;;;;;;;;;;1905293;28;7029;-67
2022/09/11 03:34:22;;;;;;;;;;;;;;;;;;1904100;28;7009;-66
2022/09/11 03:35:20;;;;;;;;;;;;;;;;;;1904906;28;7116;-66
2022/09/11 03:36:19;;;;;;;;;;;;;;;;;;1905396;28;7092;-66
2022/09/11 03:37:17;;;;;;;;;;;;;;;;;;1904883;28;7009;-66
2022/09/11 03:38:14;;;;;;;;;;;;;;;;;;1904788;28;7025;-66
2022/09/11 03:39:12;;;;;;;;;;;;;;;;;;1905155;28;7357;-66
2022/09/11 03:40:09;;;;;;;;;;;;;;;;;;1904994;28;7026;-66
2022/09/11 03:41:08;;;;;;;;;;;;;;;;;;1905340;28;7153;-66
2022/09/11 03:42:05;;;;;;;;;;;;;;;;;;1905437;28;7038;-66
2022/09/11 03:43:03;;;;;;;;;;;;;;;;;;1904330;28;7117;-67
2022/09/11 03:44:00;;;;;;;;;;;;;;;;;;1905137;28;7005;-66
2022/09/11 03:44:58;;;;;;;;;;;;;;;;;;1904763;28;7054;-66
2022/09/11 03:45:55;;;;;;;;;;;;;;;;;;1904995;28;7010;-67
2022/09/11 03:46:52;;;;;;;;;;;;;;;;;;1905133;28;7009;-66
2022/09/11 03:47:50;;;;;;;;;;;;;;;;;;1905359;28;7013;-66
2022/09/11 03:48:47;;;;;;;;;;;;;;;;;;1904756;28;7096;-67
2022/09/11 03:49:45;;;;;;;;;;;;;;;;;;1904649;28;7005;-66
2022/09/11 03:50:44;;;;;;;;;;;;;;;;;;1904704;28;7136;-67
2022/09/11 03:51:41;;;;;;;;;;;;;;;;;;1905225;28;8042;-66
2022/09/11 03:52:39;;;;;;;;;;;;;;;;;;1904692;28;8103;-66
2022/09/11 03:53:37;;;;;;;;;;;;;;;;;;1905359;28;7129;-66
2022/09/11 03:54:35;;;;;;;;;;;;;;;;;;1904842;28;7088;-66
2022/09/11 03:55:32;;;;;;;;;;;;;;;;;;1905548;28;7117;-66
2022/09/11 03:56:30;;;;;;;;;;;;;;;;;;1900716;28;7120;-66
2022/09/11 03:57:27;;;;;;;;;;;;;;;;;;1897863;28;7451;-66
2022/09/11 03:58:25;;;;;;;;;;;;;;;;;;1904523;28;7327;-66
2022/09/11 03:59:22;;;;;;;;;;;;;;;;;;1904439;28;8021;-67
2022/09/11 04:00:20;;;;;;;;;;;;;;;;;;1904414;28;7026;-67
2022/09/11 04:01:18;;;;;;;;;;;;;;;;;;1903503;28;7034;-67
2022/09/11 04:02:15;;;;;;;;;;;;;;;;;;1905582;28;7005;-66
2022/09/11 04:03:16;;;;;;;;;;;;;;;;;;1905291;28;7009;-66
2022/09/11 04:04:14;;;;;;;;;;;;;;;;;;1904832;28;7037;-67
2022/09/11 04:05:12;;;;;;;;;;;;;;;;;;1905478;28;7152;-66
2022/09/11 04:06:10;;;;;;;;;;;;;;;;;;1903647;28;7005;-67
2022/09/11 04:07:07;;;;;;;;;;;;;;;;;;1905034;28;7096;-66
2022/09/11 04:08:05;;;;;;;;;;;;;;;;;;1904971;28;7009;-66
2022/09/11 04:09:02;;;;;;;;;;;;;;;;;;1905046;28;8051;-66
2022/09/11 04:10:00;;;;;;;;;;;;;;;;;;1905324;28;7049;-66
2022/09/11 04:10:57;;;;;;;;;;;;;;;;;;1904723;28;7092;-66
2022/09/11 04:11:55;;;;;;;;;;;;;;;;;;1905033;28;7296;-66
2022/09/11 04:12:52;;;;;;;;;;;;;;;;;;1905225;28;7192;-67
2022/09/11 04:13:50;;;;;;;;;;;;;;;;;;1902401;28;7029;-66
2022/09/11 04:14:49;;;;;;;;;;;;;;;;;;1897562;28;7335;-67
2022/09/11 04:15:46;;;;;;;;;;;;;;;;;;1896412;28;7005;-66
2022/09/11 04:16:44;;;;;;;;;;;;;;;;;;1897976;28;7085;-66
2022/09/11 04:17:41;;;;;;;;;;;;;;;;;;1897110;28;7109;-66
2022/09/11 04:18:40;;;;;;;;;;;;;;;;;;1901031;28;7010;-67
2022/09/11 04:19:37;;;;;;;;;;;;;;;;;;1904291;28;8606;-66
2022/09/11 04:20:37;;;;;;;;;;;;;;;;;;1904490;28;7304;-66
2022/09/11 04:21:34;;;;;;;;;;;;;;;;;;1899220;28;7005;-66
2022/09/11 04:22:32;;;;;;;;;;;;;;;;;;1904619;28;7022;-67
2022/09/11 04:23:29;;;;;;;;;;;;;;;;;;1904538;28;7092;-66
2022/09/11 04:24:27;;;;;;;;;;;;;;;;;;1904922;28;7009;-66
2022/09/11 04:25:24;;;;;;;;;;;;;;;;;;1904403;28;7096;-66
2022/09/11 04:26:23;;;;;;;;;;;;;;;;;;1904440;28;7010;-67
2022/09/11 04:27:22;;;;;;;;;;;;;;;;;;1903967;28;7093;-66
2022/09/11 04:28:19;;;;;;;;;;;;;;;;;;1904524;28;7034;-66
2022/09/11 04:29:17;;;;;;;;;;;;;;;;;;1904406;28;7075;-67
2022/09/11 04:30:14;;;;;;;;;;;;;;;;;;1904474;28;7001;-66
2022/09/11 04:31:12;;;;;;;;;;;;;;;;;;1900888;28;7001;-66
2022/09/11 04:32:10;;;;;;;;;;;;;;;;;;1895772;28;7014;-66
2022/09/11 04:33:08;;;;;;;;;;;;;;;;;;1903412;28;7010;-66
2022/09/11 04:34:05;;;;;;;;;;;;;;;;;;1904205;28;7010;-66
2022/09/11 04:35:03;;;;;;;;;;;;;;;;;;1897142;28;7010;-65
2022/09/11 04:36:05;;;;;;;;;;;;;;;;;;1902828;28;7109;-66
2022/09/11 04:37:02;;;;;;;;;;;;;;;;;;1891669;28;7005;-66
2022/09/11 04:37:59;;;;;;;;;;;;;;;;;;1894354;28;7002;-65
2022/09/11 04:38:59;;;;;;;;;;;;;;;;;;1899779;28;7157;-67
2022/09/11 04:39:56;;;;;;;;;;;;;;;;;;1897087;28;7109;-66
2022/09/11 04:40:54;;;;;;;;;;;;;;;;;;1896230;28;7010;-66
2022/09/11 04:41:51;;;;;;;;;;;;;;;;;;1895903;28;7009;-66
2022/09/11 04:42:49;;;;;;;;;;;;;;;;;;1897202;28;7006;-66
2022/09/11 04:43:46;;;;;;;;;;;;;;;;;;1897268;28;8111;-66
2022/09/11 04:44:45;;;;;;;;;;;;;;;;;;1897008;28;7092;-66
2022/09/11 04:45:42;;;;;;;;;;;;;;;;;;1901179;28;8163;-66
2022/09/11 04:46:40;;;;;;;;;;;;;;;;;;1899612;28;7009;-66
2022/09/11 04:47:37;;;;;;;;;;;;;;;;;;1895763;28;7014;-66
2022/09/11 04:48:36;;;;;;;;;;;;;;;;;;1897080;28;7100;-66
2022/09/11 04:49:34;;;;;;;;;;;;;;;;;;1896966;28;7109;-66
2022/09/11 04:50:31;;;;;;;;;;;;;;;;;;1897366;28;7096;-68
2022/09/11 04:51:30;;;;;;;;;;;;;;;;;;1901199;28;7084;-66
2022/09/11 04:52:28;;;;;;;;;;;;;;;;;;1897040;28;7017;-66
2022/09/11 04:53:25;;;;;;;;;;;;;;;;;;1896241;28;7324;-66
2022/09/11 04:54:23;;;;;;;;;;;;;;;;;;1897411;28;7013;-66
2022/09/11 04:55:22;;;;;;;;;;;;;;;;;;1899226;28;7128;-66
2022/09/11 04:56:22;;;;;;;;;;;;;;;;;;1894879;28;7037;-66
2022/09/11 04:57:19;;;;;;;;;;;;;;;;;;1902528;28;8051;-66
2022/09/11 04:58:16;;;;;;;;;;;;;;;;;;1896970;28;7034;-67
2022/09/11 04:59:18;;;;;;;;;;;;;;;;;;1897429;28;7010;-67
2022/09/11 05:00:16;;;;;;;;;;;;;;;;;;1889380;28;7097;-67
2022/09/11 05:01:15;;;;;;;;;;;;;;;;;;1888954;28;7010;-66
2022/09/11 05:02:13;;;;;;;;;;;;;;;;;;1896700;28;7105;-67
2022/09/11 05:03:11;;;;;;;;;;;;;;;;;;1898341;28;7025;-66
2022/09/11 05:04:11;;;;;;;;;;;;;;;;;;1898617;28;7089;-66
2022/09/11 05:05:08;;;;;;;;;;;;;;;;;;1901268;28;7113;-66
2022/09/11 05:06:07;;;;;;;;;;;;;;;;;;1903223;28;7037;-67
2022/09/11 05:07:04;;;;;;;;;;;;;;;;;;1899243;28;7470;-66
2022/09/11 05:08:02;;;;;;;;;;;;;;;;;;1896019;28;7054;-66
2022/09/11 05:09:02;;;;;;;;;;;;;;;;;;1903718;28;7010;-66
2022/09/11 05:09:59;;;;;;;;;;;;;;;;;;1899575;28;7074;-67
2022/09/11 05:10:58;;;;;;;;;;;;;;;;;;1899266;28;7014;-67
2022/09/11 05:11:56;;;;;;;;;;;;;;;;;;1897034;28;7189;-66
2022/09/11 05:12:53;;;;;;;;;;;;;;;;;;1897025;28;7058;-66
2022/09/11 05:13:51;;;;;;;;;;;;;;;;;;1902739;28;7113;-66
2022/09/11 05:14:50;;;;;;;;;;;;;;;;;;1904933;28;7054;-66
2022/09/11 05:15:47;;;;;;;;;;;;;;;;;;1900039;28;7077;-66
2022/09/11 05:16:44;;;;;;;;;;;;;;;;;;1897264;28;8031;-66
2022/09/11 05:17:42;;;;;;;;;;;;;;;;;;1895454;28;7093;-67
2022/09/11 05:18:40;;;;;;;;;;;;;;;;;;1897284;28;7182;-66
2022/09/11 05:19:38;;;;;;;;;;;;;;;;;;1897059;28;7009;-67
2022/09/11 05:20:36;;;;;;;;;;;;;;;;;;1901594;28;7035;-66
2022/09/11 05:21:34;;;;;;;;;;;;;;;;;;1900031;28;7649;-67
2022/09/11 05:22:31;;;;;;;;;;;;;;;;;;1904459;28;7026;-66
2022/09/11 05:23:30;;;;;;;;;;;;;;;;;;1902814;28;7176;-66
2022/09/11 05:24:28;;;;;;;;;;;;;;;;;;1902086;28;8040;-66
2022/09/11 05:25:28;;;;;;;;;;;;;;;;;;1904004;28;7092;-67
2022/09/11 05:26:27;;;;;;;;;;;;;;;;;;1904012;28;7239;-67
2022/09/11 05:27:25;;;;;;;;;;;;;;;;;;1899320;28;7014;-71
2022/09/11 05:28:22;;;;;;;;;;;;;;;;;;1897289;28;7046;-66
2022/09/11 05:29:20;;;;;;;;;;;;;;;;;;1897883;28;7006;-67
2022/09/11 05:30:17;;;;;;;;;;;;;;;;;;1899439;28;7100;-66
2022/09/11 05:31:16;;;;;;;;;;;;;;;;;;1904371;28;7090;-66
2022/09/11 05:32:13;;;;;;;;;;;;;;;;;;1904346;28;7029;-67
2022/09/11 05:33:12;;;;;;;;;;;;;;;;;;1904170;28;7157;-67
2022/09/11 05:34:10;;;;;;;;;;;;;;;;;;1904242;28;7038;-66
2022/09/11 05:35:07;;;;;;;;;;;;;;;;;;1896356;28;7009;-67
2022/09/11 05:36:05;;;;;;;;;;;;;;;;;;1896049;28;8022;-67
2022/09/11 05:37:02;;;;;;;;;;;;;;;;;;1889135;28;7762;-66
2022/09/11 05:38:00;;;;;;;;;;;;;;;;;;1890948;28;7021;-67
2022/09/11 05:38:58;;;;;;;;;;;;;;;;;;1895035;28;8472;-66
2022/09/11 05:39:55;;;;;;;;;;;;;;;;;;1896046;28;7327;-66
2022/09/11 05:40:53;;;;;;;;;;;;;;;;;;1903842;28;7038;-66
2022/09/11 05:41:52;;;;;;;;;;;;;;;;;;1904420;28;8034;-66
2022/09/11 05:42:51;;;;;;;;;;;;;;;;;;1903506;28;7109;-66
2022/09/11 05:43:48;;;;;;;;;;;;;;;;;;1904746;28;7280;-66
2022/09/11 05:44:46;;;;;;;;;;;;;;;;;;1904443;28;7141;-67
2022/09/11 05:45:44;;;;;;;;;;;;;;;;;;1897516;28;7124;-66
2022/09/11 05:46:42;;;;;;;;;;;;;;;;;;1897089;28;7062;-66
2022/09/11 05:47:39;;;;;;;;;;;;;;;;;;1896951;28;8050;-66
2022/09/11 05:48:37;;;;;;;;;;;;;;;;;;1896848;28;7092;-67
2022/09/11 05:49:34;;;;;;;;;;;;;;;;;;1899136;28;7220;-66
2022/09/11 05:50:33;;;;;;;;;;;;;;;;;;1904626;28;7034;-66
2022/09/11 05:51:34;;;;;;;;;;;;;;;;;;1904228;28;7006;-66
2022/09/11 05:52:33;;;;;;;;;;;;;;;;;;1904472;28;7010;-66
2022/09/11 05:53:31;;;;;;;;;;;;;;;;;;1899341;28;7030;-66
2022/09/11 05:54:29;;;;;;;;;;;;;;;;;;1904179;28;8051;-66
2022/09/11 05:55:26;;;;;;;;;;;;;;;;;;1901318;28;8168;-66
2022/09/11 05:56:24;;;;;;;;;;;;;;;;;;1904063;28;7010;-66
2022/09/11 05:57:22;;;;;;;;;;;;;;;;;;1895917;28;7200;-66
2022/09/11 05:58:20;;;;;;;;;;;;;;;;;;1896138;28;7141;-66
2022/09/11 05:59:17;;;;;;;;;;;;;;;;;;1902808;28;7371;-66
2022/09/11 06:00:15;;;;;;;;;;;;;;;;;;1904482;28;7017;-66
2022/09/11 06:01:14;;;;;;;;;;;;;;;;;;1903668;28;7013;-66
2022/09/11 06:02:11;;;;;;;;;;;;;;;;;;1902877;28;7133;-66
2022/09/11 06:03:09;;;;;;;;;;;;;;;;;;1902554;28;7069;-66
2022/09/11 06:04:12;;;;;;;;;;;;;;;;;;1902056;28;7084;-66
2022/09/11 06:05:09;;;;;;;;;;;;;;;;;;1903276;28;7017;-67
2022/09/11 06:06:08;;;;;;;;;;;;;;;;;;1900813;28;7021;-66
2022/09/11 06:07:05;;;;;;;;;;;;;;;;;;1897024;28;7005;-66
2022/09/11 06:08:03;;;;;;;;;;;;;;;;;;1897863;28;7046;-66
2022/09/11 06:09:01;;;;;;;;;;;;;;;;;;1896070;28;7018;-66
2022/09/11 06:09:58;;;;;;;;;;;;;;;;;;1902687;28;7010;-67
2022/09/11 06:11:01;;;;;;;;;;;;;;;;;;1894239;28;7457;-66
2022/09/11 06:11:59;;;;;;;;;;;;;;;;;;1888612;28;7128;-66
2022/09/11 06:12:57;;;;;;;;;;;;;;;;;;1886898;28;7042;-66
2022/09/11 06:13:54;;;;;;;;;;;;;;;;;;1902343;28;7018;-66
2022/09/11 06:14:51;;;;;;;;;;;;;;;;;;1904462;28;7009;-66
2022/09/11 06:15:49;;;;;;;;;;;;;;;;;;1903699;28;7045;-66
2022/09/11 06:16:47;;;;;;;;;;;;;;;;;;1903257;28;7092;-66
2022/09/11 06:17:45;;;;;;;;;;;;;;;;;;1903886;28;7009;-67
2022/09/11 06:18:42;;;;;;;;;;;;;;;;;;1902716;28;7005;-66
2022/09/11 06:19:39;;;;;;;;;;;;;;;;;;1903561;28;7100;-66
2022/09/11 06:20:37;;;;;;;;;;;;;;;;;;1903850;28;7092;-67
2022/09/11 06:21:34;;;;;;;;;;;;;;;;;;1903733;28;7137;-66
2022/09/11 06:22:35;;;;;;;;;;;;;;;;;;1902779;28;10193;-66
2022/09/11 06:23:34;;;;;;;;;;;;;;;;;;1904519;28;7005;-66
2022/09/11 06:24:31;;;;;;;;;;;;;;;;;;1904139;28;7046;-66
2022/09/11 06:25:28;;;;;;;;;;;;;;;;;;1903964;28;7042;-66
2022/09/11 06:26:26;;;;;;;;;;;;;;;;;;1904329;28;7010;-67
2022/09/11 06:27:24;;;;;;;;;;;;;;;;;;1904363;28;7104;-67
2022/09/11 06:28:22;;;;;;;;;;;;;;;;;;1904308;28;8050;-66
2022/09/11 06:29:19;;;;;;;;;;;;;;;;;;1904097;28;7041;-67
2022/09/11 06:30:16;;;;;;;;;;;;;;;;;;1904548;28;7013;-67
2022/09/11 06:31:15;;;;;;;;;;;;;;;;;;1904055;28;7319;-66
2022/09/11 06:32:12;;;;;;;;;;;;;;;;;;1902981;28;7039;-66
2022/09/11 06:33:10;;;;;;;;;;;;;;;;;;1904209;28;9600;-67
2022/09/11 06:34:07;;;;;;;;;;;;;;;;;;1905011;28;7124;-67
2022/09/11 06:35:05;;;;;;;;;;;;;;;;;;1902671;28;7035;-66
2022/09/11 06:36:04;;;;;;;;;;;;;;;;;;1904253;28;7017;-66
2022/09/11 06:37:02;;;;;;;;;;;;;;;;;;1904012;28;8091;-66
2022/09/11 06:38:01;;;;;;;;;;;;;;;;;;1903877;28;7096;-66
2022/09/11 06:38:58;;;;;;;;;;;;;;;;;;1903819;28;7092;-67
2022/09/11 06:39:56;;;;;;;;;;;;;;;;;;1903754;28;7030;-66
2022/09/11 06:40:53;;;;;;;;;;;;;;;;;;1904124;28;7041;-67
2022/09/11 06:41:52;;;;;;;;;;;;;;;;;;1903345;28;7009;-67
2022/09/11 06:42:50;;;;;;;;;;;;;;;;;;1904265;28;7010;-67
2022/09/11 06:43:48;;;;;;;;;;;;;;;;;;1903923;28;8110;-67
2022/09/11 06:44:45;;;;;;;;;;;;;;;;;;1901952;28;7096;-67
2022/09/11 06:45:50;;;;;;;;;;;;;;;;;;1904113;28;7120;-67
2022/09/11 06:46:47;;;;;;;;;;;;;;;;;;1904442;28;8031;-67
2022/09/11 06:47:46;;;;;;;;;;;;;;;;;;1902308;28;7006;-67
2022/09/11 06:48:45;;;;;;;;;;;;;;;;;;1903620;28;8019;-67
2022/09/11 06:49:42;;;;;;;;;;;;;;;;;;1904433;28;7073;-67
2022/09/11 06:50:39;;;;;;;;;;;;;;;;;;1904604;28;7093;-67
2022/09/11 06:51:38;;;;;;;;;;;;;;;;;;1903498;28;8111;-66
2022/09/11 06:52:36;;;;;;;;;;;;;;;;;;1904522;28;7262;-68
2022/09/11 06:53:33;;;;;;;;;;;;;;;;;;1903946;28;7017;-67
2022/09/11 06:54:30;;;;;;;;;;;;;;;;;;1904439;28;7096;-67